Kah Nee Ta, Oregon
Current Conditions -  °F | °C
As of 6:10 AM on Friday 24 Oct 2014 (Local Time) from KRDM Reporting Station
Overcast Overcast  
Wind Chill: 46°   Ceiling: 2700
Heat Index: 46°   Visibility: 10mi
Dew Point: 42°   Wind: 3mph
Humidity: 86%   Direction: 100°E
Pressure: 30.04"   Gusts: NA
Location:  44.7239°N, 121.498°W
Report Text: KRDM 241310Z 10003KT 10SM BKN027 OVC090 08/06 A3004 RMK AO2 T00780056
Loading
Personal Weather Stations






























Interactive Weather Map
Tropical Storm Tracking
New forecast layout! Learn more

10-Day Weather Forecast

Advertisements
Track Severe Weather on mobile